Venango Regional Airport Franklin US
ICAO: KFKL
IATA: FKL
Category: Medium
Scheduled Services: No

Elevation: 1540 ft
TransAlt. 18000 ft.

Airport Communications:
YOUNGSTOWN APP/DEP:133.95
AWOS 3:118.175
CLNC DEL:126.25
ALTOONA RDO:109.6
CTAF/UNICOM:122.7

KFKL Zoom In..

Runways:

(A) RW 03 length 5200 ft width 150 ft
---- / hdg 27

(B) RW 12 length 3593 ft width 100 ft
---- / hdg 116

(C) RW 21 length 5200 ft width 150 ft
ILS 110.50 / hdg 207

(D) RW 30 length 3593 ft width 100 ft
---- / hdg 296

Location; KFKL
Day. 23 / Time. 14.56 Zulu
* Altimeter: 29.58
* Temperature: 07° c. 44.6°f.
* Wind from: 210° Speed 18 kn with Gusts up to 27 kn.
Dewpoint: 01° c.
Visibility: 10 Statute Miles.
Clouds: Few 3900 ft.

KFKL 231456Z AUTO 21018G27KT 10SM FEW039 07/01 A2958 RMK AO2 PK WND 21027/1454 SLP023 60000 T00720006 58005


Wind From 210°
Speed 18 kn.

YouTube Music Video
 
jpsmedia.com for Web Design  worldairports.se 2018   terms of use